Página principal
METAR-TAF:

METAR-TAF

Aeroportos :

Aeroporto Internacional Amílcar Cabral

Sal, Cabo Verde

latitude: 16-44N, longitude: 022-57W, altura: 54 m

Observação actual do tempo

O boletim foi feito há 22 minutos, às 17:00 UTC
Vento 14 kt de nordeste
Temperatura 25°C
Humidade 57%
Pressão 1012 hPa
Visibilidade 10 km ou mais
Poucas nuvensa uma altura de 1400 ft
Nuvens dispersasa uma altura de 20000 ft

METAR: GVAC 201700Z 04014KT 9999 FEW014 SCT200 25/16 Q1012 NOSIG

Hora: 16:22 (17:22 UTC)

Previsão

O boletim foi feito há 6 horas e 22 minutos, às 11:00 UTC
Previsão válida de 20 às 12 UTC a 21 às 18 UTC
Vento 15 kt de norte
Visibilidade 10 km ou mais
Poucas nuvensa uma altura de 1400 ft

TAF: GVAC 201100Z 2012/2118 01015KT 9999 FEW014

Observações e previsões do tempo de mais de 4000 aeroportos (mensagens METAR e TAF).

As estações disponíveis são os pontos amarelos e vermelhos sobre o mapa.

Mova o rato sobre o mapa para ver o nome da estação.

Depois clique no ponto para visualizar as observações e previsões meteorológicas.

Para alterar o mapa : clique nos botões verdes com uma cruz preta para aumentar o zoom; no botão verde com uma pitada de zoom; ou nas setas verdes para mapas adjacentes.


METAR-TAF: